createdAt,value
2022-12-25T00:00:31.813Z,8.70
2022-12-25T00:02:58.814Z,8.70
2022-12-25T00:05:25.477Z,8.70
2022-12-25T00:07:52.017Z,8.80
2022-12-25T00:10:18.559Z,8.80
2022-12-25T00:12:45.001Z,8.80
2022-12-25T00:15:11.515Z,8.80
2022-12-25T00:17:38.043Z,8.80
2022-12-25T00:20:04.748Z,8.80
2022-12-25T00:22:31.577Z,8.90
2022-12-25T00:24:58.046Z,8.90
2022-12-25T00:27:24.498Z,8.80
2022-12-25T00:29:51.020Z,8.80
2022-12-25T00:32:17.588Z,8.90
2022-12-25T00:34:44.150Z,8.90
2022-12-25T00:37:10.588Z,8.90
2022-12-25T00:39:37.246Z,8.90
2022-12-25T00:42:18.764Z,8.90
2022-12-25T00:44:45.825Z,8.90
2022-12-25T00:47:12.416Z,8.90
2022-12-25T00:49:40.045Z,8.80
2022-12-25T00:52:06.536Z,8.90
2022-12-25T00:54:33.120Z,8.90
2022-12-25T00:56:59.613Z,8.90
2022-12-25T00:59:26.351Z,8.90
2022-12-25T01:01:53.116Z,8.90
2022-12-25T01:04:19.688Z,8.90
2022-12-25T01:06:46.214Z,9.00
2022-12-25T01:09:31.434Z,9.10
2022-12-25T01:11:57.990Z,9.10
2022-12-25T01:14:24.521Z,9.10
2022-12-25T01:16:51.146Z,9.10
2022-12-25T01:19:17.707Z,9.10
2022-12-25T01:21:44.279Z,9.10
2022-12-25T01:24:10.803Z,9.10
2022-12-25T01:26:37.384Z,9.10
2022-12-25T01:29:03.972Z,9.10
2022-12-25T01:31:30.577Z,9.10
2022-12-25T01:33:57.127Z,9.10
2022-12-25T01:36:24.656Z,9.20
2022-12-25T01:38:52.154Z,9.20
2022-12-25T01:41:20.283Z,9.10
2022-12-25T01:44:01.739Z,9.10
2022-12-25T01:46:28.765Z,9.20
2022-12-25T01:48:56.813Z,9.20
2022-12-25T01:51:29.948Z,9.20
2022-12-25T01:53:58.041Z,9.20
2022-12-25T01:56:25.012Z,9.20
2022-12-25T01:58:51.531Z,9.20
2022-12-25T02:01:18.164Z,9.30
2022-12-25T02:03:44.742Z,9.30
2022-12-25T02:06:11.720Z,9.30
2022-12-25T02:08:38.472Z,9.30
2022-12-25T02:11:05.005Z,9.30
2022-12-25T02:13:31.669Z,9.30
2022-12-25T02:16:06.050Z,9.30
2022-12-25T02:18:38.420Z,9.30
2022-12-25T02:21:13.989Z,9.30
2022-12-25T02:23:57.343Z,9.30
2022-12-25T02:26:27.618Z,9.20
2022-12-25T02:28:54.080Z,9.20
2022-12-25T02:31:23.507Z,9.20
2022-12-25T02:34:05.944Z,9.20
2022-12-25T02:36:35.476Z,9.20
2022-12-25T02:39:21.875Z,9.30
2022-12-25T02:41:50.636Z,9.30
2022-12-25T02:44:37.883Z,9.20
2022-12-25T02:47:24.811Z,9.30
2022-12-25T02:50:11.167Z,9.20
2022-12-25T02:52:56.492Z,9.20
2022-12-25T02:55:43.023Z,9.20
2022-12-25T02:58:29.445Z,9.20
2022-12-25T03:01:19.174Z,9.20
2022-12-25T03:04:04.772Z,9.10
2022-12-25T03:06:44.404Z,9.10
2022-12-25T03:09:32.073Z,9.10
2022-12-25T03:12:13.655Z,9.00
2022-12-25T03:14:58.816Z,9.00
2022-12-25T03:17:25.365Z,9.00
2022-12-25T03:20:10.429Z,8.90
2022-12-25T03:22:55.540Z,9.00
2022-12-25T03:25:40.895Z,8.90
2022-12-25T03:28:07.611Z,8.90
2022-12-25T03:31:03.621Z,9.00
2022-12-25T03:33:47.166Z,9.00
2022-12-25T03:36:24.105Z,9.10
2022-12-25T03:39:15.087Z,9.10
2022-12-25T03:42:03.431Z,9.10
2022-12-25T03:44:48.486Z,9.20
2022-12-25T03:47:35.514Z,9.10
2022-12-25T03:50:36.060Z,9.20
2022-12-25T03:53:22.949Z,9.20
2022-12-25T03:56:08.473Z,9.20
2022-12-25T03:58:53.493Z,9.20
2022-12-25T04:01:38.795Z,9.20
2022-12-25T04:04:24.889Z,9.10
2022-12-25T04:07:09.824Z,9.10
2022-12-25T04:09:54.973Z,9.10
2022-12-25T04:12:40.230Z,9.00
2022-12-25T04:15:25.679Z,8.90
2022-12-25T04:18:11.325Z,9.00
2022-12-25T04:20:56.202Z,9.00
2022-12-25T04:23:41.337Z,9.00
2022-12-25T04:26:26.420Z,9.00
2022-12-25T04:29:11.676Z,9.00
2022-12-25T04:31:57.083Z,9.00
2022-12-25T04:34:42.015Z,9.00
2022-12-25T04:37:08.583Z,9.00
2022-12-25T04:39:35.078Z,9.00
2022-12-25T04:42:01.535Z,8.90
2022-12-25T04:44:28.055Z,8.90
2022-12-25T04:46:54.679Z,8.90
2022-12-25T04:49:21.219Z,9.00
2022-12-25T04:51:47.827Z,8.90
2022-12-25T04:54:14.320Z,8.90
2022-12-25T04:56:45.497Z,8.90
2022-12-25T04:59:12.379Z,8.90
2022-12-25T05:01:38.973Z,9.00
2022-12-25T05:04:05.524Z,9.00
2022-12-25T05:06:32.027Z,9.00
2022-12-25T05:08:58.586Z,8.90
2022-12-25T05:11:25.092Z,8.90
2022-12-25T05:13:51.594Z,9.00
2022-12-25T05:16:19.259Z,9.00
2022-12-25T05:18:48.058Z,8.90
2022-12-25T05:21:14.635Z,8.90
2022-12-25T05:23:48.544Z,9.00
2022-12-25T05:26:16.510Z,8.90
2022-12-25T05:28:43.294Z,9.00
2022-12-25T05:31:10.225Z,9.00
2022-12-25T05:33:37.095Z,9.00
2022-12-25T05:36:04.512Z,9.00
2022-12-25T05:38:31.206Z,9.00
2022-12-25T05:40:57.806Z,8.90
2022-12-25T05:43:24.300Z,8.90
2022-12-25T05:45:50.989Z,9.00
2022-12-25T05:48:18.275Z,9.00
2022-12-25T05:50:44.828Z,9.00
2022-12-25T05:53:12.606Z,9.00
2022-12-25T05:55:39.865Z,9.00
2022-12-25T05:58:06.946Z,8.90
2022-12-25T06:00:33.795Z,9.00
2022-12-25T06:03:00.679Z,9.00
2022-12-25T06:05:27.395Z,8.90
2022-12-25T06:07:53.974Z,8.90
2022-12-25T06:10:20.495Z,8.90
2022-12-25T06:12:47.097Z,8.90
2022-12-25T06:15:13.770Z,8.90
2022-12-25T06:17:40.387Z,8.90
2022-12-25T06:20:07.299Z,8.80
2022-12-25T06:22:34.224Z,8.80
2022-12-25T06:25:00.902Z,8.80
2022-12-25T06:27:28.478Z,8.80
2022-12-25T06:29:55.404Z,8.80
2022-12-25T06:32:21.936Z,8.80
2022-12-25T06:34:48.736Z,8.80
2022-12-25T06:37:15.237Z,8.70
2022-12-25T06:39:41.771Z,8.80
2022-12-25T06:42:08.413Z,8.80
2022-12-25T06:44:34.878Z,8.70
2022-12-25T06:47:01.344Z,8.70
2022-12-25T06:49:27.914Z,8.70
2022-12-25T06:51:54.406Z,8.70
2022-12-25T06:54:21.034Z,8.70
2022-12-25T06:56:48.627Z,8.70
2022-12-25T06:59:15.229Z,8.80
2022-12-25T07:01:41.847Z,8.80
2022-12-25T07:04:15.081Z,8.80
2022-12-25T07:06:41.639Z,8.80
2022-12-25T07:09:08.185Z,8.80
2022-12-25T07:11:34.728Z,8.80
2022-12-25T07:14:01.193Z,8.80
2022-12-25T07:16:27.690Z,8.90
2022-12-25T07:18:54.153Z,8.90
2022-12-25T07:21:20.871Z,8.90
2022-12-25T07:23:48.757Z,8.80
2022-12-25T07:26:15.599Z,8.90
2022-12-25T07:28:42.134Z,8.90
2022-12-25T07:31:13.146Z,8.90
2022-12-25T07:33:40.181Z,8.90
2022-12-25T07:36:07.583Z,8.90
2022-12-25T07:38:36.740Z,8.90
2022-12-25T07:41:03.316Z,8.90
2022-12-25T07:43:29.846Z,8.90
2022-12-25T07:45:57.133Z,8.90
2022-12-25T07:48:23.854Z,8.90
2022-12-25T07:50:55.551Z,9.00
2022-12-25T07:53:22.142Z,9.00
2022-12-25T07:55:48.650Z,9.10
2022-12-25T07:58:21.370Z,9.10
2022-12-25T08:00:49.816Z,9.10
2022-12-25T08:03:16.921Z,9.00
2022-12-25T08:05:43.687Z,9.10
2022-12-25T08:08:10.296Z,9.10
2022-12-25T08:10:36.805Z,9.20
2022-12-25T08:13:06.496Z,9.10
2022-12-25T08:15:35.611Z,9.20
2022-12-25T08:18:02.171Z,9.20
2022-12-25T08:20:28.642Z,9.30
2022-12-25T08:22:55.213Z,9.40
2022-12-25T08:25:21.780Z,9.40
2022-12-25T08:27:48.301Z,9.40
2022-12-25T08:30:14.879Z,9.40
2022-12-25T08:32:41.459Z,9.50
2022-12-25T08:35:08.255Z,9.50
2022-12-25T08:37:34.885Z,9.60
2022-12-25T08:40:01.446Z,9.60
2022-12-25T08:42:28.020Z,9.70
2022-12-25T08:44:54.765Z,9.70
2022-12-25T08:47:21.267Z,9.70
2022-12-25T08:49:47.874Z,9.70
2022-12-25T08:52:15.425Z,9.70
2022-12-25T08:54:41.938Z,9.70
2022-12-25T08:57:08.526Z,9.60
2022-12-25T08:59:35.136Z,9.60
2022-12-25T09:02:01.708Z,9.60
2022-12-25T09:04:28.345Z,9.60
2022-12-25T09:06:54.860Z,9.60
2022-12-25T09:09:21.352Z,9.70
2022-12-25T09:11:48.879Z,9.70
2022-12-25T09:14:15.520Z,9.70
2022-12-25T09:16:42.062Z,9.70
2022-12-25T09:19:08.666Z,9.80
2022-12-25T09:21:36.746Z,9.80
2022-12-25T09:24:03.955Z,9.80
2022-12-25T09:26:30.665Z,9.80
2022-12-25T09:28:57.231Z,9.90
2022-12-25T09:31:23.923Z,9.90
2022-12-25T09:33:51.147Z,9.90
2022-12-25T09:36:18.010Z,9.80
2022-12-25T09:38:44.565Z,9.80
2022-12-25T09:41:20.705Z,9.80
2022-12-25T09:43:52.720Z,9.80
2022-12-25T09:46:21.711Z,9.80
2022-12-25T09:48:55.399Z,9.90
2022-12-25T09:51:22.896Z,9.90
2022-12-25T09:53:52.999Z,10.00
2022-12-25T09:56:26.305Z,10.00
2022-12-25T09:58:53.481Z,9.90
2022-12-25T10:01:20.372Z,10.00
2022-12-25T10:03:49.905Z,10.00
2022-12-25T10:06:19.680Z,10.00
2022-12-25T10:08:55.388Z,10.00
2022-12-25T10:11:21.889Z,10.00
2022-12-25T10:13:57.868Z,10.00
2022-12-25T10:16:34.350Z,10.10
2022-12-25T10:19:19.048Z,10.10
2022-12-25T10:21:46.279Z,10.10
2022-12-25T10:24:18.831Z,10.20
2022-12-25T10:26:45.413Z,10.30
2022-12-25T10:29:13.663Z,10.40
2022-12-25T10:31:41.697Z,10.50
2022-12-25T10:34:10.310Z,10.60
2022-12-25T10:36:36.877Z,10.80
2022-12-25T10:39:03.563Z,10.80
2022-12-25T10:41:48.677Z,11.00
2022-12-25T10:44:20.063Z,11.10
2022-12-25T10:46:50.305Z,11.10
2022-12-25T10:49:19.499Z,11.10
2022-12-25T10:51:46.240Z,11.00
2022-12-25T10:54:32.825Z,11.00
2022-12-25T10:57:03.455Z,11.00
2022-12-25T10:59:34.015Z,11.10
2022-12-25T11:02:19.354Z,11.10
2022-12-25T11:04:46.142Z,11.10
2022-12-25T11:07:18.540Z,11.10
2022-12-25T11:09:59.331Z,11.10
2022-12-25T11:12:31.767Z,11.20
2022-12-25T11:15:05.183Z,11.20
2022-12-25T11:17:31.891Z,11.30
2022-12-25T11:19:59.561Z,11.40
2022-12-25T11:22:26.522Z,11.40
2022-12-25T11:24:53.099Z,11.50
2022-12-25T11:27:29.677Z,11.50
2022-12-25T11:29:58.411Z,11.50
2022-12-25T11:32:28.770Z,11.40
2022-12-25T11:34:55.320Z,11.40
2022-12-25T11:37:25.407Z,11.40
2022-12-25T11:39:52.038Z,11.40
2022-12-25T11:42:28.600Z,11.30
2022-12-25T11:45:03.793Z,11.40
2022-12-25T11:47:30.236Z,11.40
2022-12-25T11:50:02.155Z,11.40
2022-12-25T11:52:31.747Z,11.40
2022-12-25T11:55:18.582Z,11.30
2022-12-25T11:57:46.947Z,11.30
2022-12-25T12:00:15.455Z,11.30
2022-12-25T12:02:57.424Z,11.40
2022-12-25T12:05:26.361Z,11.40
2022-12-25T12:07:55.363Z,11.40
2022-12-25T12:10:26.214Z,11.50
2022-12-25T12:13:00.192Z,11.50
2022-12-25T12:15:29.124Z,11.50
2022-12-25T12:17:55.975Z,11.50
2022-12-25T12:20:28.325Z,11.60
2022-12-25T12:22:54.948Z,11.60
2022-12-25T12:25:22.219Z,11.70
2022-12-25T12:28:04.820Z,11.70
2022-12-25T12:30:34.522Z,11.70
2022-12-25T12:33:02.579Z,11.80
2022-12-25T12:35:33.067Z,11.80
2022-12-25T12:38:19.998Z,11.80
2022-12-25T12:40:52.706Z,11.80
2022-12-25T12:43:36.610Z,11.70
2022-12-25T12:46:30.172Z,11.70
2022-12-25T12:49:09.025Z,11.70
2022-12-25T12:51:37.583Z,11.70
2022-12-25T12:54:13.360Z,11.80
2022-12-25T12:56:41.010Z,11.80
2022-12-25T12:59:09.075Z,11.80
2022-12-25T13:01:35.702Z,11.80
2022-12-25T13:04:55.171Z,11.80
2022-12-25T13:07:44.072Z,11.80
2022-12-25T13:10:21.073Z,11.90
2022-12-25T13:13:00.462Z,11.90
2022-12-25T13:15:34.706Z,11.80
2022-12-25T13:18:06.802Z,11.90
2022-12-25T13:20:33.659Z,11.90
2022-12-25T13:23:00.224Z,11.80
2022-12-25T13:25:29.079Z,11.80
2022-12-25T13:27:59.824Z,11.80
2022-12-25T13:30:26.587Z,11.90
2022-12-25T13:32:55.442Z,11.90
2022-12-25T13:35:22.803Z,11.80
2022-12-25T13:37:52.243Z,11.80
2022-12-25T13:40:24.051Z,11.80
2022-12-25T13:42:52.230Z,11.80
2022-12-25T13:45:24.025Z,11.80
2022-12-25T13:47:56.126Z,11.70
2022-12-25T13:50:28.542Z,11.70
2022-12-25T13:52:56.136Z,11.70
2022-12-25T13:55:24.748Z,11.70
2022-12-25T13:57:56.174Z,11.60
2022-12-25T14:00:43.111Z,11.50
2022-12-25T14:03:17.640Z,11.50
2022-12-25T14:05:47.064Z,11.40
2022-12-25T14:08:29.816Z,11.40
2022-12-25T14:10:56.949Z,11.40
2022-12-25T14:13:27.042Z,11.40
2022-12-25T14:15:54.352Z,11.40
2022-12-25T14:18:21.791Z,11.30
2022-12-25T14:20:57.616Z,11.30
2022-12-25T14:23:24.396Z,11.30
2022-12-25T14:25:51.268Z,11.30
2022-12-25T14:28:19.844Z,11.30
2022-12-25T14:30:46.488Z,11.30
2022-12-25T14:33:19.028Z,11.30
2022-12-25T14:35:46.972Z,11.30
2022-12-25T14:38:20.028Z,11.30
2022-12-25T14:40:46.468Z,11.20
2022-12-25T14:43:23.424Z,11.30
2022-12-25T14:45:57.566Z,11.20
2022-12-25T14:48:25.831Z,11.20
2022-12-25T14:51:07.257Z,11.20
2022-12-25T14:53:45.837Z,11.20
2022-12-25T14:56:16.034Z,11.20
2022-12-25T14:58:46.495Z,11.10
2022-12-25T15:01:42.841Z,11.10
2022-12-25T15:04:09.459Z,11.00
2022-12-25T15:06:36.763Z,11.00
2022-12-25T15:09:06.394Z,10.90
2022-12-25T15:11:32.930Z,10.90
2022-12-25T15:13:59.546Z,10.90
2022-12-25T15:16:28.478Z,10.90
2022-12-25T15:18:55.551Z,10.80
2022-12-25T15:21:32.866Z,10.80
2022-12-25T15:23:59.777Z,10.70
2022-12-25T15:26:27.558Z,10.70
2022-12-25T15:28:54.104Z,10.70
2022-12-25T15:31:25.390Z,10.60
2022-12-25T15:33:52.740Z,10.50
2022-12-25T15:36:19.257Z,10.50
2022-12-25T15:38:45.783Z,10.50
2022-12-25T15:41:36.239Z,10.50
2022-12-25T15:44:03.951Z,10.60
2022-12-25T15:46:30.646Z,10.50
2022-12-25T15:48:57.304Z,10.50
2022-12-25T15:51:23.811Z,10.50
2022-12-25T15:53:50.364Z,10.50
2022-12-25T15:56:17.134Z,10.50
2022-12-25T15:58:43.702Z,10.50
2022-12-25T16:01:13.800Z,10.50
2022-12-25T16:03:40.295Z,10.40
2022-12-25T16:06:08.801Z,10.30
2022-12-25T16:08:35.262Z,10.30
2022-12-25T16:11:01.743Z,10.30
2022-12-25T16:13:28.230Z,10.30
2022-12-25T16:15:54.808Z,10.20
2022-12-25T16:18:21.415Z,10.10
2022-12-25T16:20:47.939Z,10.10
2022-12-25T16:23:14.477Z,10.00
2022-12-25T16:25:41.031Z,10.00
2022-12-25T16:28:10.227Z,10.00
2022-12-25T16:30:37.711Z,10.00
2022-12-25T16:33:04.755Z,9.90
2022-12-25T16:35:31.891Z,9.90
2022-12-25T16:37:58.421Z,9.80
2022-12-25T16:40:24.895Z,9.80
2022-12-25T16:42:51.468Z,9.80
2022-12-25T16:45:18.071Z,9.70
2022-12-25T16:47:44.586Z,9.70
2022-12-25T16:50:11.180Z,9.70
2022-12-25T16:52:37.737Z,9.70
2022-12-25T16:55:04.544Z,9.70
2022-12-25T16:57:31.745Z,9.70
2022-12-25T16:59:58.337Z,9.60
2022-12-25T17:02:25.092Z,9.60
2022-12-25T17:04:51.683Z,9.60
2022-12-25T17:07:18.546Z,9.60
2022-12-25T17:09:48.780Z,9.60
2022-12-25T17:12:15.590Z,9.60
2022-12-25T17:14:42.112Z,9.60
2022-12-25T17:17:08.586Z,9.60
2022-12-25T17:19:35.137Z,9.50
2022-12-25T17:22:01.628Z,9.50
2022-12-25T17:24:28.689Z,9.60
2022-12-25T17:26:55.522Z,9.60
2022-12-25T17:29:23.007Z,9.60
2022-12-25T17:31:50.353Z,9.60
2022-12-25T17:34:17.212Z,9.60
2022-12-25T17:36:43.712Z,9.50
2022-12-25T17:39:10.774Z,9.50
2022-12-25T17:41:37.279Z,9.50
2022-12-25T17:44:03.926Z,9.50
2022-12-25T17:46:31.038Z,9.50
2022-12-25T17:48:59.057Z,9.40
2022-12-25T17:51:26.267Z,9.40
2022-12-25T17:53:54.006Z,9.40
2022-12-25T17:56:21.993Z,9.30
2022-12-25T17:58:52.089Z,9.30
2022-12-25T18:01:19.935Z,9.30
2022-12-25T18:03:46.659Z,9.30
2022-12-25T18:06:15.815Z,9.20
2022-12-25T18:08:43.056Z,9.20
2022-12-25T18:11:13.563Z,9.30
2022-12-25T18:13:41.955Z,9.30
2022-12-25T18:16:08.890Z,9.20
2022-12-25T18:18:35.595Z,9.20
2022-12-25T18:21:02.177Z,9.30
2022-12-25T18:23:29.093Z,9.20
2022-12-25T18:25:55.686Z,9.20
2022-12-25T18:28:22.485Z,9.20
2022-12-25T18:30:49.057Z,9.20
2022-12-25T18:33:15.698Z,9.20
2022-12-25T18:35:43.400Z,9.20
2022-12-25T18:38:13.851Z,9.10
2022-12-25T18:40:43.651Z,9.10
2022-12-25T18:43:10.418Z,9.10
2022-12-25T18:45:39.964Z,9.10
2022-12-25T18:48:06.987Z,9.10
2022-12-25T18:50:36.931Z,9.10
2022-12-25T18:53:03.993Z,9.10
2022-12-25T18:55:33.154Z,9.10
2022-12-25T18:57:59.723Z,9.10
2022-12-25T19:00:29.086Z,9.10
2022-12-25T19:02:57.533Z,9.00
2022-12-25T19:05:24.356Z,9.00
2022-12-25T19:07:51.669Z,9.00
2022-12-25T19:10:18.257Z,9.00
2022-12-25T19:12:44.807Z,9.10
2022-12-25T19:15:11.406Z,9.10
2022-12-25T19:17:38.040Z,9.20
2022-12-25T19:20:06.057Z,9.20
2022-12-25T19:22:32.674Z,9.30
2022-12-25T19:24:59.272Z,9.30
2022-12-25T19:27:25.904Z,9.30
2022-12-25T19:29:52.490Z,9.30
2022-12-25T19:32:24.182Z,9.40
2022-12-25T19:34:50.817Z,9.40
2022-12-25T19:37:17.424Z,9.30
2022-12-25T19:39:46.772Z,9.40
2022-12-25T19:42:14.299Z,9.30
2022-12-25T19:44:40.971Z,9.40
2022-12-25T19:47:08.932Z,9.40
2022-12-25T19:49:35.544Z,9.40
2022-12-25T19:52:02.135Z,9.50
2022-12-25T19:54:29.433Z,9.50
2022-12-25T19:56:56.056Z,9.50
2022-12-25T19:59:22.753Z,9.50
2022-12-25T20:01:49.692Z,9.50
2022-12-25T20:04:18.058Z,9.40
2022-12-25T20:06:44.959Z,9.40
2022-12-25T20:09:13.527Z,9.30
2022-12-25T20:11:40.285Z,9.30
2022-12-25T20:14:07.653Z,9.30
2022-12-25T20:16:36.649Z,9.30
2022-12-25T20:19:03.859Z,9.30
2022-12-25T20:21:30.379Z,9.30
2022-12-25T20:23:56.959Z,9.30
2022-12-25T20:26:25.041Z,9.30
2022-12-25T20:28:52.009Z,9.20
2022-12-25T20:31:27.257Z,9.20
2022-12-25T20:33:54.742Z,9.20
2022-12-25T20:36:21.362Z,9.30
2022-12-25T20:38:47.925Z,9.40
2022-12-25T20:41:31.938Z,9.40
2022-12-25T20:43:58.668Z,9.40
2022-12-25T20:46:26.640Z,9.40
2022-12-25T20:48:53.893Z,9.40
2022-12-25T20:51:21.975Z,9.40
2022-12-25T20:53:48.716Z,9.40
2022-12-25T20:56:16.428Z,9.50
2022-12-25T20:58:43.196Z,9.60
2022-12-25T21:01:11.408Z,9.60
2022-12-25T21:03:38.243Z,9.70
2022-12-25T21:06:04.881Z,10.00
2022-12-25T21:08:31.427Z,10.30
2022-12-25T21:11:00.701Z,10.60
2022-12-25T21:13:31.791Z,10.80
2022-12-25T21:15:58.416Z,10.90
2022-12-25T21:18:25.872Z,11.00
2022-12-25T21:20:53.492Z,11.10
2022-12-25T21:23:20.376Z,11.20
2022-12-25T21:25:47.419Z,11.40
2022-12-25T21:28:14.372Z,11.50
2022-12-25T21:30:41.355Z,11.50
2022-12-25T21:33:40.435Z,11.60
2022-12-25T21:36:08.145Z,11.60
2022-12-25T21:38:35.168Z,11.70
2022-12-25T21:41:05.474Z,11.70
2022-12-25T21:43:32.432Z,11.70
2022-12-25T21:46:06.291Z,11.80
2022-12-25T21:48:33.593Z,11.90
2022-12-25T21:51:22.270Z,11.90
2022-12-25T21:53:48.771Z,11.80
2022-12-25T21:56:15.239Z,11.90
2022-12-25T21:58:42.363Z,12.00
2022-12-25T22:01:09.668Z,12.00
2022-12-25T22:03:36.472Z,12.00
2022-12-25T22:06:21.900Z,12.10
2022-12-25T22:08:48.501Z,12.10
2022-12-25T22:11:33.864Z,12.20
2022-12-25T22:14:19.167Z,12.20
2022-12-25T22:17:24.413Z,12.10
2022-12-25T22:19:50.884Z,12.10
2022-12-25T22:22:21.541Z,12.20
2022-12-25T22:24:48.404Z,12.20
2022-12-25T22:27:15.253Z,12.20
2022-12-25T22:29:42.136Z,12.30
2022-12-25T22:32:08.840Z,12.30
2022-12-25T22:34:35.712Z,12.30
2022-12-25T22:37:02.645Z,12.30
2022-12-25T22:39:29.701Z,12.30
2022-12-25T22:41:57.223Z,12.30
2022-12-25T22:44:24.504Z,12.50
2022-12-25T22:46:51.161Z,12.40
2022-12-25T22:49:18.380Z,12.40
2022-12-25T22:51:45.646Z,12.40
2022-12-25T22:54:16.218Z,12.40
2022-12-25T22:56:43.975Z,12.40
2022-12-25T22:59:13.971Z,12.40
2022-12-25T23:01:40.570Z,12.50
2022-12-25T23:04:07.660Z,12.40
2022-12-25T23:06:34.380Z,12.40
2022-12-25T23:09:01.227Z,12.40
2022-12-25T23:11:27.662Z,12.40
2022-12-25T23:14:29.725Z,12.40
2022-12-25T23:16:56.364Z,12.50
2022-12-25T23:19:41.414Z,12.40
2022-12-25T23:22:28.389Z,12.40
2022-12-25T23:25:13.646Z,12.40
2022-12-25T23:27:40.489Z,12.40
2022-12-25T23:30:08.251Z,12.50
2022-12-25T23:32:35.115Z,12.40
2022-12-25T23:35:01.680Z,12.50
2022-12-25T23:37:28.345Z,12.40
2022-12-25T23:39:57.566Z,12.40
2022-12-25T23:42:24.199Z,12.30
2022-12-25T23:44:50.710Z,12.30
2022-12-25T23:47:17.291Z,12.30
2022-12-25T23:49:44.043Z,12.30
2022-12-25T23:52:11.396Z,12.40
2022-12-25T23:54:37.838Z,12.40
2022-12-25T23:57:05.516Z,12.40
2022-12-25T23:59:32.210Z,12.40
